Aeroporto :
LOGIN :

Iscrizione | Disclaimer

   EN    FR    IT 

 










Sommario :    VFR   VFR Marginale   IFR   IFR Intensivo   IFR Molto Intensivo
Visibilità : 
Base nubi : 
>= 8 km
>= 3000ft
5 / 8 km
1000 / 3000 ft
1500m / 5 km
500 / 1000 ft
800 / 1500m
200 / 500 ft
< 800m
< 200 ft
Simboli :   Temporali  Nebbia  Neve Forte  Precipitazioni Forti  Vento > 20 kt
SIGMETs :   Varie  Temporali  Ghiacco  Turbolenza  Onda orograficha  Ceneri Vulcaniche






- Altitudine del aeroporto : 15 ft
- Codice IATA : FCO


LIRF - Roma Leonardo da Vinci Fiumicino

ULTIMO METAR :
  • 240820Z VRB03KT 9999 FEW030 12/06 Q1007 NOSIG

METARs OBSOLETI :
  • 240750Z 21003KT 170V260 9999 FEW030 12/06 Q1007 NOSIG
  • 240720Z VRB02KT CAVOK 12/07 Q1007 NOSIG
  • 240650Z 06003KT 030V100 CAVOK 10/07 Q1007 NOSIG
  • 240620Z 10004KT 040V130 9999 FEW035 09/06 Q1007 NOSIG
  • 240550Z 12006KT 100V160 9999 FEW035 08/06 Q1006 NOSIG
  • 240520Z 07006KT 9999 FEW010CB SCT040 07/05 Q1006 TEMPO TSRA
  • 240450Z 08005KT 060V120 9999 SCT050 07/06 Q1006 TEMPO TSRA
  • 240420Z 03003KT 270V070 9999 -RA FEW010 SCT030 BKN050 07/06 Q1007 RETSRA TEMPO TSRA
  • 240350Z VRB07KT 9999 -TSRA SCT025 SCT030CB 07/05 Q1006 RETSRA NOSIG
  • 240320Z 06008KT 9999 VCTS BKN030 07/05 Q1006 TEMPO TSRA

TAF TAF LIRF
Valido dal 24 a 06 ore il 25 a 12 ore UTC


240500Z 2406/2512 25015KT 9999 SCT025
TEMPO 2406/2415 4000 TSRA
BECMG 2410/2412 32012KT
BECMG 2419/2421 10006KT



MetMap, La meteo Aeronautica in un colpo d'occhio ! - Copyright ORBIFLY Dicembre 2007 - Disclaimer

ORBIFLY MET'MAP TEAM :

Programmazione e sviluppo : Alexandra Zaïnal
Concezione : Baudouin d'Aumeries
Supporto tecnico e logistico : Manuel Goepfert
Aiuto : Marc-Olivier Méhu
Aiuto per la traduzione : Arnaldo La Scala




FONTI E CREDITI :

   NOAA